sensor_id;sensor_type;location;lat;lon;timestamp;pressure;altitude;pressure_sealevel;temperature;humidity
20624;BME280;10471;42.736;23.346;2022-07-06T00:00:33;95482.41;;;20.30;100.00
20624;BME280;10471;42.736;23.346;2022-07-06T00:02:59;95488.44;;;20.27;100.00
20624;BME280;10471;42.736;23.346;2022-07-06T00:05:25;95495.69;;;20.27;100.00
20624;BME280;10471;42.736;23.346;2022-07-06T00:07:50;95491.88;;;20.16;100.00
20624;BME280;10471;42.736;23.346;2022-07-06T00:10:16;95490.19;;;20.11;100.00
20624;BME280;10471;42.736;23.346;2022-07-06T00:12:41;95493.75;;;20.03;100.00
20624;BME280;10471;42.736;23.346;2022-07-06T00:15:07;95480.03;;;20.05;100.00
20624;BME280;10471;42.736;23.346;2022-07-06T00:17:32;95478.47;;;20.04;100.00
20624;BME280;10471;42.736;23.346;2022-07-06T00:19:57;95475.22;;;19.98;100.00
20624;BME280;10471;42.736;23.346;2022-07-06T00:22:23;95478.13;;;19.93;100.00
20624;BME280;10471;42.736;23.346;2022-07-06T00:24:48;95483.59;;;19.76;100.00
20624;BME280;10471;42.736;23.346;2022-07-06T00:27:14;95479.56;;;19.71;100.00
20624;BME280;10471;42.736;23.346;2022-07-06T00:29:39;95492.47;;;19.69;100.00
20624;BME280;10471;42.736;23.346;2022-07-06T00:32:09;95494.19;;;19.53;100.00
20624;BME280;10471;42.736;23.346;2022-07-06T00:34:35;95489.09;;;19.60;100.00
20624;BME280;10471;42.736;23.346;2022-07-06T00:37:00;95486.09;;;19.61;100.00
20624;BME280;10471;42.736;23.346;2022-07-06T00:39:26;95484.00;;;19.67;100.00
20624;BME280;10471;42.736;23.346;2022-07-06T00:41:55;95482.44;;;19.66;100.00
20624;BME280;10471;42.736;23.346;2022-07-06T00:44:20;95483.41;;;19.61;100.00
20624;BME280;10471;42.736;23.346;2022-07-06T00:46:46;95483.06;;;19.63;100.00
20624;BME280;10471;42.736;23.346;2022-07-06T00:49:11;95490.66;;;19.61;100.00
20624;BME280;10471;42.736;23.346;2022-07-06T00:51:57;95500.25;;;19.62;100.00
20624;BME280;10471;42.736;23.346;2022-07-06T00:54:23;95492.88;;;19.59;100.00
20624;BME280;10471;42.736;23.346;2022-07-06T00:56:49;95486.63;;;19.55;100.00
20624;BME280;10471;42.736;23.346;2022-07-06T00:59:14;95472.28;;;19.59;100.00
20624;BME280;10471;42.736;23.346;2022-07-06T01:01:40;95467.69;;;19.60;100.00
20624;BME280;10471;42.736;23.346;2022-07-06T01:04:05;95462.09;;;19.53;100.00
20624;BME280;10471;42.736;23.346;2022-07-06T01:06:30;95450.81;;;19.47;100.00
20624;BME280;10471;42.736;23.346;2022-07-06T01:08:56;95445.56;;;19.39;100.00
20624;BME280;10471;42.736;23.346;2022-07-06T01:11:22;95449.34;;;19.38;100.00
20624;BME280;10471;42.736;23.346;2022-07-06T01:13:47;95437.75;;;19.34;100.00
20624;BME280;10471;42.736;23.346;2022-07-06T01:16:13;95431.63;;;19.33;100.00
20624;BME280;10471;42.736;23.346;2022-07-06T01:18:39;95427.72;;;19.31;100.00
20624;BME280;10471;42.736;23.346;2022-07-06T01:21:13;95438.91;;;19.24;100.00
20624;BME280;10471;42.736;23.346;2022-07-06T01:23:40;95431.88;;;19.20;100.00
20624;BME280;10471;42.736;23.346;2022-07-06T01:26:09;95434.91;;;19.18;100.00
20624;BME280;10471;42.736;23.346;2022-07-06T01:28:35;95430.97;;;19.16;100.00
20624;BME280;10471;42.736;23.346;2022-07-06T01:31:00;95438.53;;;19.14;100.00
20624;BME280;10471;42.736;23.346;2022-07-06T01:33:26;95432.72;;;19.12;100.00
20624;BME280;10471;42.736;23.346;2022-07-06T01:35:51;95433.81;;;19.11;100.00
20624;BME280;10471;42.736;23.346;2022-07-06T01:38:16;95428.97;;;19.05;100.00
20624;BME280;10471;42.736;23.346;2022-07-06T01:40:42;95429.16;;;19.08;100.00
20624;BME280;10471;42.736;23.346;2022-07-06T01:43:07;95432.28;;;19.10;100.00
20624;BME280;10471;42.736;23.346;2022-07-06T01:45:32;95426.19;;;19.01;100.00
20624;BME280;10471;42.736;23.346;2022-07-06T01:47:58;95427.94;;;18.97;100.00
20624;BME280;10471;42.736;23.346;2022-07-06T01:50:23;95430.19;;;18.95;100.00
20624;BME280;10471;42.736;23.346;2022-07-06T01:52:49;95427.03;;;18.93;100.00
20624;BME280;10471;42.736;23.346;2022-07-06T01:55:14;95433.81;;;18.91;100.00
20624;BME280;10471;42.736;23.346;2022-07-06T01:57:40;95429.63;;;18.81;100.00
20624;BME280;10471;42.736;23.346;2022-07-06T02:00:07;95437.19;;;18.79;100.00
20624;BME280;10471;42.736;23.346;2022-07-06T02:02:33;95441.88;;;18.82;100.00
20624;BME280;10471;42.736;23.346;2022-07-06T02:04:58;95440.50;;;18.76;100.00
20624;BME280;10471;42.736;23.346;2022-07-06T02:07:24;95453.22;;;18.79;100.00
20624;BME280;10471;42.736;23.346;2022-07-06T02:09:49;95453.22;;;18.79;100.00
20624;BME280;10471;42.736;23.346;2022-07-06T02:12:14;95451.84;;;18.73;100.00
20624;BME280;10471;42.736;23.346;2022-07-06T02:14:40;95443.53;;;18.66;100.00
20624;BME280;10471;42.736;23.346;2022-07-06T02:17:05;95446.03;;;18.71;100.00
20624;BME280;10471;42.736;23.346;2022-07-06T02:19:31;95445.25;;;18.71;100.00
20624;BME280;10471;42.736;23.346;2022-07-06T02:21:56;95448.22;;;18.69;100.00
20624;BME280;10471;42.736;23.346;2022-07-06T02:24:21;95445.25;;;18.71;100.00
20624;BME280;10471;42.736;23.346;2022-07-06T02:26:47;95449.16;;;18.73;100.00
20624;BME280;10471;42.736;23.346;2022-07-06T02:29:12;95442.41;;;18.76;100.00
20624;BME280;10471;42.736;23.346;2022-07-06T02:31:38;95444.06;;;18.80;100.00
20624;BME280;10471;42.736;23.346;2022-07-06T02:34:03;95441.88;;;18.82;100.00
20624;BME280;10471;42.736;23.346;2022-07-06T02:36:29;95447.88;;;18.79;100.00
20624;BME280;10471;42.736;23.346;2022-07-06T02:38:54;95452.09;;;18.80;100.00
20624;BME280;10471;42.736;23.346;2022-07-06T02:41:19;95454.13;;;18.83;100.00
20624;BME280;10471;42.736;23.346;2022-07-06T02:43:45;95457.25;;;18.85;100.00
20624;BME280;10471;42.736;23.346;2022-07-06T02:46:10;95461.03;;;18.84;100.00
20624;BME280;10471;42.736;23.346;2022-07-06T02:48:35;95463.72;;;18.84;100.00
20624;BME280;10471;42.736;23.346;2022-07-06T02:51:01;95461.47;;;18.86;100.00
20624;BME280;10471;42.736;23.346;2022-07-06T02:53:26;95462.59;;;18.85;100.00
20624;BME280;10471;42.736;23.346;2022-07-06T02:55:52;95461.03;;;18.84;100.00
20624;BME280;10471;42.736;23.346;2022-07-06T02:58:17;95467.16;;;18.85;100.00
20624;BME280;10471;42.736;23.346;2022-07-06T03:00:43;95466.56;;;18.79;100.00
20624;BME280;10471;42.736;23.346;2022-07-06T03:03:08;95468.44;;;18.79;100.00
20624;BME280;10471;42.736;23.346;2022-07-06T03:05:35;95471.16;;;18.70;100.00
20624;BME280;10471;42.736;23.346;2022-07-06T03:08:00;95470.09;;;18.63;100.00
20624;BME280;10471;42.736;23.346;2022-07-06T03:10:26;95470.44;;;18.61;100.00
20624;BME280;10471;42.736;23.346;2022-07-06T03:12:52;95473.09;;;18.61;100.00
20624;BME280;10471;42.736;23.346;2022-07-06T03:15:18;95473.66;;;18.46;100.00
20624;BME280;10471;42.736;23.346;2022-07-06T03:17:43;95473.19;;;18.44;100.00
20624;BME280;10471;42.736;23.346;2022-07-06T03:20:09;95472.59;;;18.39;100.00
20624;BME280;10471;42.736;23.346;2022-07-06T03:22:34;95478.88;;;18.35;100.00
20624;BME280;10471;42.736;23.346;2022-07-06T03:25:00;95477.31;;;18.34;100.00
20624;BME280;10471;42.736;23.346;2022-07-06T03:27:25;95481.44;;;18.23;100.00
20624;BME280;10471;42.736;23.346;2022-07-06T03:29:51;95484.88;;;18.32;100.00
20624;BME280;10471;42.736;23.346;2022-07-06T03:32:16;95481.44;;;18.23;100.00
20624;BME280;10471;42.736;23.346;2022-07-06T03:34:41;95488.03;;;18.25;100.00
20624;BME280;10471;42.736;23.346;2022-07-06T03:37:07;95476.75;;;18.20;100.00
20624;BME280;10471;42.736;23.346;2022-07-06T03:39:33;95493.38;;;18.17;100.00
20624;BME280;10471;42.736;23.346;2022-07-06T03:41:58;95483.19;;;18.19;100.00
20624;BME280;10471;42.736;23.346;2022-07-06T03:44:24;95486.16;;;18.26;100.00
20624;BME280;10471;42.736;23.346;2022-07-06T03:46:49;95481.72;;;18.30;100.00
20624;BME280;10471;42.736;23.346;2022-07-06T03:49:16;95490.97;;;18.32;100.00
20624;BME280;10471;42.736;23.346;2022-07-06T03:51:41;95491.91;;;18.36;100.00
20624;BME280;10471;42.736;23.346;2022-07-06T03:54:06;95492.69;;;18.37;100.00
20624;BME280;10471;42.736;23.346;2022-07-06T03:56:32;95494.44;;;18.33;100.00
20624;BME280;10471;42.736;23.346;2022-07-06T03:59:02;95494.44;;;18.33;100.00
20624;BME280;10471;42.736;23.346;2022-07-06T04:01:27;95493.66;;;18.32;100.00
20624;BME280;10471;42.736;23.346;2022-07-06T04:03:55;95496.78;;;18.34;100.00
20624;BME280;10471;42.736;23.346;2022-07-06T04:06:21;95500.06;;;18.40;100.00
20624;BME280;10471;42.736;23.346;2022-07-06T04:08:46;95492.66;;;18.45;100.00
20624;BME280;10471;42.736;23.346;2022-07-06T04:11:12;95497.19;;;18.44;100.00
20624;BME280;10471;42.736;23.346;2022-07-06T04:13:37;95500.97;;;18.43;100.00
20624;BME280;10471;42.736;23.346;2022-07-06T04:16:05;95504.13;;;18.45;100.00
20624;BME280;10471;42.736;23.346;2022-07-06T04:18:30;95496.75;;;18.42;100.00
20624;BME280;10471;42.736;23.346;2022-07-06T04:20:56;95503.63;;;18.43;100.00
20624;BME280;10471;42.736;23.346;2022-07-06T04:23:24;95511.03;;;18.46;100.00
20624;BME280;10471;42.736;23.346;2022-07-06T04:25:50;95517.47;;;18.45;100.00
20624;BME280;10471;42.736;23.346;2022-07-06T04:28:15;95511.50;;;18.48;100.00
20624;BME280;10471;42.736;23.346;2022-07-06T04:30:41;95514.78;;;18.45;100.00
20624;BME280;10471;42.736;23.346;2022-07-06T04:33:06;95520.25;;;18.57;100.00
20624;BME280;10471;42.736;23.346;2022-07-06T04:35:32;95511.41;;;18.65;100.00
20624;BME280;10471;42.736;23.346;2022-07-06T04:37:57;95521.63;;;18.63;100.00
20624;BME280;10471;42.736;23.346;2022-07-06T04:40:22;95522.88;;;18.66;100.00
20624;BME280;10471;42.736;23.346;2022-07-06T04:42:48;95531.84;;;18.61;100.00
20624;BME280;10471;42.736;23.346;2022-07-06T04:45:13;95524.13;;;18.68;100.00
20624;BME280;10471;42.736;23.346;2022-07-06T04:47:39;95529.13;;;18.70;100.00
20624;BME280;10471;42.736;23.346;2022-07-06T04:50:04;95532.53;;;18.79;100.00
20624;BME280;10471;42.736;23.346;2022-07-06T04:52:30;95544.81;;;18.80;100.00
20624;BME280;10471;42.736;23.346;2022-07-06T04:54:55;95539.59;;;18.83;100.00
20624;BME280;10471;42.736;23.346;2022-07-06T04:57:21;95540.66;;;18.91;100.00
20624;BME280;10471;42.736;23.346;2022-07-06T04:59:46;95549.25;;;18.96;100.00
20624;BME280;10471;42.736;23.346;2022-07-06T05:02:12;95547.06;;;18.98;100.00
20624;BME280;10471;42.736;23.346;2022-07-06T05:04:38;95552.69;;;19.05;100.00
20624;BME280;10471;42.736;23.346;2022-07-06T05:07:03;95552.06;;;19.08;100.00
20624;BME280;10471;42.736;23.346;2022-07-06T05:09:28;95558.75;;;19.22;100.00
20624;BME280;10471;42.736;23.346;2022-07-06T05:11:54;95553.66;;;19.29;100.00
20624;BME280;10471;42.736;23.346;2022-07-06T05:14:19;95556.53;;;19.45;100.00
20624;BME280;10471;42.736;23.346;2022-07-06T05:16:45;95558.97;;;19.58;100.00
20624;BME280;10471;42.736;23.346;2022-07-06T05:19:10;95569.84;;;19.53;100.00
20624;BME280;10471;42.736;23.346;2022-07-06T05:21:36;95571.28;;;19.51;100.00
20624;BME280;10471;42.736;23.346;2022-07-06T05:24:01;95565.56;;;19.61;100.00
20624;BME280;10471;42.736;23.346;2022-07-06T05:26:26;95574.81;;;19.63;100.00
20624;BME280;10471;42.736;23.346;2022-07-06T05:28:52;95576.25;;;19.61;100.00
20624;BME280;10471;42.736;23.346;2022-07-06T05:31:17;95583.94;;;19.62;100.00
20624;BME280;10471;42.736;23.346;2022-07-06T05:33:42;95585.13;;;19.73;100.00
20624;BME280;10471;42.736;23.346;2022-07-06T05:36:08;95584.25;;;19.81;100.00
20624;BME280;10471;42.736;23.346;2022-07-06T05:38:34;95589.53;;;19.89;100.00
20624;BME280;10471;42.736;23.346;2022-07-06T05:40:59;95591.59;;;19.92;100.00
20624;BME280;10471;42.736;23.346;2022-07-06T05:43:24;95593.97;;;19.85;100.00
20624;BME280;10471;42.736;23.346;2022-07-06T05:45:50;95601.44;;;20.00;100.00
20624;BME280;10471;42.736;23.346;2022-07-06T05:48:15;95601.97;;;20.14;100.00
20624;BME280;10471;42.736;23.346;2022-07-06T05:51:00;95607.47;;;20.30;100.00
20624;BME280;10471;42.736;23.346;2022-07-06T05:53:25;95607.81;;;20.28;100.00
20624;BME280;10471;42.736;23.346;2022-07-06T05:55:51;95611.81;;;20.22;100.00
20624;BME280;10471;42.736;23.346;2022-07-06T05:58:16;95612.06;;;20.29;100.00
20624;BME280;10471;42.736;23.346;2022-07-06T06:00:42;95611.72;;;20.31;100.00
20624;BME280;10471;42.736;23.346;2022-07-06T06:03:07;95616.09;;;20.35;100.00
20624;BME280;10471;42.736;23.346;2022-07-06T06:05:33;95624.16;;;20.47;100.00
20624;BME280;10471;42.736;23.346;2022-07-06T06:07:58;95619.31;;;20.73;100.00
20624;BME280;10471;42.736;23.346;2022-07-06T06:10:23;95618.41;;;20.69;100.00
20624;BME280;10471;42.736;23.346;2022-07-06T06:12:49;95616.69;;;20.85;100.00
20624;BME280;10471;42.736;23.346;2022-07-06T06:15:15;95616.19;;;20.71;100.00
20624;BME280;10471;42.736;23.346;2022-07-06T06:17:41;95623.31;;;20.55;100.00
20624;BME280;10471;42.736;23.346;2022-07-06T06:20:08;95629.13;;;20.69;100.00
20624;BME280;10471;42.736;23.346;2022-07-06T06:22:51;95618.16;;;20.62;100.00
20624;BME280;10471;42.736;23.346;2022-07-06T06:25:19;95621.06;;;20.57;100.00
20624;BME280;10471;42.736;23.346;2022-07-06T06:27:45;95611.69;;;20.63;100.00
20624;BME280;10471;42.736;23.346;2022-07-06T06:30:11;95611.09;;;20.78;100.00
20624;BME280;10471;42.736;23.346;2022-07-06T06:32:37;95610.22;;;20.98;100.00
20624;BME280;10471;42.736;23.346;2022-07-06T06:35:04;95619.28;;;21.17;100.00
20624;BME280;10471;42.736;23.346;2022-07-06T06:37:29;95616.03;;;21.23;100.00
20624;BME280;10471;42.736;23.346;2022-07-06T06:39:55;95609.09;;;21.34;100.00
20624;BME280;10471;42.736;23.346;2022-07-06T06:42:20;95616.03;;;21.35;100.00
20624;BME280;10471;42.736;23.346;2022-07-06T06:44:47;95612.25;;;21.60;100.00
20624;BME280;10471;42.736;23.346;2022-07-06T06:47:12;95608.44;;;21.49;100.00
20624;BME280;10471;42.736;23.346;2022-07-06T06:49:37;95604.88;;;21.33;100.00
20624;BME280;10471;42.736;23.346;2022-07-06T06:52:03;95609.69;;;21.40;100.00
20624;BME280;10471;42.736;23.346;2022-07-06T06:54:28;95610.00;;;21.62;100.00
20624;BME280;10471;42.736;23.346;2022-07-06T06:56:54;95611.78;;;21.70;100.00
20624;BME280;10471;42.736;23.346;2022-07-06T06:59:19;95607.97;;;21.71;100.00
20624;BME280;10471;42.736;23.346;2022-07-06T07:01:45;95612.00;;;21.77;100.00
20624;BME280;10471;42.736;23.346;2022-07-06T07:04:10;95610.81;;;22.02;100.00
20624;BME280;10471;42.736;23.346;2022-07-06T07:06:37;95609.94;;;21.86;100.00
20624;BME280;10471;42.736;23.346;2022-07-06T07:09:02;95605.50;;;21.78;100.00
20624;BME280;10471;42.736;23.346;2022-07-06T07:11:28;95619.63;;;21.75;100.00
20624;BME280;10471;42.736;23.346;2022-07-06T07:13:53;95613.78;;;21.85;100.00
20624;BME280;10471;42.736;23.346;2022-07-06T07:16:18;95617.56;;;21.84;100.00
20624;BME280;10471;42.736;23.346;2022-07-06T07:18:44;95613.47;;;22.02;100.00
20624;BME280;10471;42.736;23.346;2022-07-06T07:21:09;95613.69;;;22.09;100.00
20624;BME280;10471;42.736;23.346;2022-07-06T07:23:35;95610.00;;;22.13;100.00
20624;BME280;10471;42.736;23.346;2022-07-06T07:26:00;95610.06;;;22.17;100.00
20624;BME280;10471;42.736;23.346;2022-07-06T07:28:26;95604.28;;;22.15;100.00
20624;BME280;10471;42.736;23.346;2022-07-06T07:30:51;95606.94;;;22.27;100.00
20624;BME280;10471;42.736;23.346;2022-07-06T07:33:16;95617.25;;;22.13;100.00
20624;BME280;10471;42.736;23.346;2022-07-06T07:35:42;95617.38;;;22.16;100.00
20624;BME280;10471;42.736;23.346;2022-07-06T07:38:07;95610.75;;;22.14;100.00
20624;BME280;10471;42.736;23.346;2022-07-06T07:40:33;95616.63;;;22.04;100.00
20624;BME280;10471;42.736;23.346;2022-07-06T07:43:00;95623.75;;;22.12;100.00
20624;BME280;10471;42.736;23.346;2022-07-06T07:45:25;95613.16;;;22.43;100.00
20624;BME280;10471;42.736;23.346;2022-07-06T07:47:51;95608.66;;;22.62;100.00
20624;BME280;10471;42.736;23.346;2022-07-06T07:50:16;95615.22;;;22.92;100.00
20624;BME280;10471;42.736;23.346;2022-07-06T07:52:41;95608.44;;;22.98;100.00
20624;BME280;10471;42.736;23.346;2022-07-06T07:55:07;95597.38;;;22.99;100.00
20624;BME280;10471;42.736;23.346;2022-07-06T07:57:33;95601.88;;;23.26;100.00
20624;BME280;10471;42.736;23.346;2022-07-06T07:59:58;95602.72;;;23.45;100.00
20624;BME280;10471;42.736;23.346;2022-07-06T08:02:24;95600.88;;;23.65;99.85
20624;BME280;10471;42.736;23.346;2022-07-06T08:04:49;95600.34;;;23.75;96.73
20624;BME280;10471;42.736;23.346;2022-07-06T08:07:14;95599.72;;;23.16;100.00
20624;BME280;10471;42.736;23.346;2022-07-06T08:09:40;95596.50;;;23.11;100.00
20624;BME280;10471;42.736;23.346;2022-07-06T08:12:05;95596.25;;;23.15;98.48
20624;BME280;10471;42.736;23.346;2022-07-06T08:14:31;95598.91;;;23.46;99.35
20624;BME280;10471;42.736;23.346;2022-07-06T08:16:56;95601.41;;;23.55;97.55
20624;BME280;10471;42.736;23.346;2022-07-06T08:19:23;95606.63;;;23.48;96.53
20624;BME280;10471;42.736;23.346;2022-07-06T08:21:48;95599.63;;;23.43;98.68
20624;BME280;10471;42.736;23.346;2022-07-06T08:24:13;95597.91;;;23.70;98.51
20624;BME280;10471;42.736;23.346;2022-07-06T08:26:39;95594.56;;;23.91;93.37
20624;BME280;10471;42.736;23.346;2022-07-06T08:29:05;95597.13;;;24.03;90.67
20624;BME280;10471;42.736;23.346;2022-07-06T08:31:30;95598.97;;;24.18;90.47
20624;BME280;10471;42.736;23.346;2022-07-06T08:33:56;95603.38;;;24.45;87.21
20624;BME280;10471;42.736;23.346;2022-07-06T08:36:22;95595.13;;;24.57;85.19
20624;BME280;10471;42.736;23.346;2022-07-06T08:38:48;95591.16;;;24.32;87.15
20624;BME280;10471;42.736;23.346;2022-07-06T08:41:17;95588.94;;;24.38;89.22
20624;BME280;10471;42.736;23.346;2022-07-06T08:43:43;95594.69;;;24.74;90.10
20624;BME280;10471;42.736;23.346;2022-07-06T08:46:09;95592.28;;;24.69;86.71
20624;BME280;10471;42.736;23.346;2022-07-06T08:48:37;95591.75;;;24.60;87.93
20624;BME280;10471;42.736;23.346;2022-07-06T08:51:04;95597.09;;;25.01;85.51
20624;BME280;10471;42.736;23.346;2022-07-06T08:53:30;95596.13;;;25.13;83.41
20624;BME280;10471;42.736;23.346;2022-07-06T08:55:55;95598.03;;;25.34;78.61
20624;BME280;10471;42.736;23.346;2022-07-06T08:58:24;95589.06;;;25.05;81.09
20624;BME280;10471;42.736;23.346;2022-07-06T09:00:51;95595.00;;;25.13;82.75
20624;BME280;10471;42.736;23.346;2022-07-06T09:03:16;95596.00;;;25.06;83.01
20624;BME280;10471;42.736;23.346;2022-07-06T09:05:45;95593.03;;;25.11;86.14
20624;BME280;10471;42.736;23.346;2022-07-06T09:08:11;95591.09;;;24.89;85.44
20624;BME280;10471;42.736;23.346;2022-07-06T09:10:37;95594.22;;;24.91;84.71
20624;BME280;10471;42.736;23.346;2022-07-06T09:13:07;95599.47;;;24.61;85.58
20624;BME280;10471;42.736;23.346;2022-07-06T09:15:34;95596.47;;;24.66;86.37
20624;BME280;10471;42.736;23.346;2022-07-06T09:18:00;95596.31;;;24.22;89.72
20624;BME280;10471;42.736;23.346;2022-07-06T09:20:26;95595.81;;;24.35;88.07
20624;BME280;10471;42.736;23.346;2022-07-06T09:22:57;95600.09;;;24.17;88.39
20624;BME280;10471;42.736;23.346;2022-07-06T09:25:24;95597.13;;;24.22;88.96
20624;BME280;10471;42.736;23.346;2022-07-06T09:27:49;95604.38;;;24.18;87.60
20624;BME280;10471;42.736;23.346;2022-07-06T09:30:16;95602.66;;;24.10;85.92
20624;BME280;10471;42.736;23.346;2022-07-06T09:32:46;95600.97;;;24.40;88.02
20624;BME280;10471;42.736;23.346;2022-07-06T09:35:23;95605.31;;;24.67;83.89
20624;BME280;10471;42.736;23.346;2022-07-06T09:38:13;95599.75;;;24.56;82.25
20624;BME280;10471;42.736;23.346;2022-07-06T09:40:43;95596.91;;;24.49;82.34
20624;BME280;10471;42.736;23.346;2022-07-06T09:45:38;95592.66;;;24.48;87.69
20624;BME280;10471;42.736;23.346;2022-07-06T09:48:11;95589.72;;;24.19;87.94
20624;BME280;10471;42.736;23.346;2022-07-06T09:50:54;95583.66;;;24.41;88.60
20624;BME280;10471;42.736;23.346;2022-07-06T09:53:22;95576.34;;;24.83;86.34
20624;BME280;10471;42.736;23.346;2022-07-06T09:55:51;95572.56;;;24.65;87.09
20624;BME280;10471;42.736;23.346;2022-07-06T09:58:17;95575.66;;;24.67;86.73
20624;BME280;10471;42.736;23.346;2022-07-06T10:00:44;95577.53;;;24.63;85.71
20624;BME280;10471;42.736;23.346;2022-07-06T10:03:11;95571.41;;;24.66;85.72
20624;BME280;10471;42.736;23.346;2022-07-06T10:05:38;95577.44;;;25.01;84.14
20624;BME280;10471;42.736;23.346;2022-07-06T10:08:05;95566.44;;;25.09;82.24
20624;BME280;10471;42.736;23.346;2022-07-06T10:10:32;95565.00;;;25.41;85.55
20624;BME280;10471;42.736;23.346;2022-07-06T10:12:59;95571.16;;;25.41;80.87
20624;BME280;10471;42.736;23.346;2022-07-06T10:15:26;95570.34;;;24.93;80.50
20624;BME280;10471;42.736;23.346;2022-07-06T10:17:52;95569.81;;;25.06;79.91
20624;BME280;10471;42.736;23.346;2022-07-06T10:20:19;95572.28;;;25.14;82.17
20624;BME280;10471;42.736;23.346;2022-07-06T10:22:47;95567.09;;;25.28;81.77
20624;BME280;10471;42.736;23.346;2022-07-06T10:25:14;95567.63;;;25.37;80.63
20624;BME280;10471;42.736;23.346;2022-07-06T10:27:40;95560.97;;;24.87;80.08
20624;BME280;10471;42.736;23.346;2022-07-06T10:30:08;95567.78;;;25.22;79.86
20624;BME280;10471;42.736;23.346;2022-07-06T10:32:34;95558.72;;;24.89;77.45
20624;BME280;10471;42.736;23.346;2022-07-06T10:35:00;95563.16;;;25.22;77.65
20624;BME280;10471;42.736;23.346;2022-07-06T10:37:27;95564.06;;;25.30;75.50
20624;BME280;10471;42.736;23.346;2022-07-06T10:39:53;95562.28;;;25.67;74.22
20624;BME280;10471;42.736;23.346;2022-07-06T10:45:06;95558.66;;;25.82;73.77
20624;BME280;10471;42.736;23.346;2022-07-06T10:47:32;95556.50;;;25.68;73.15
20624;BME280;10471;42.736;23.346;2022-07-06T10:50:00;95559.09;;;25.61;71.83
20624;BME280;10471;42.736;23.346;2022-07-06T10:55:45;95566.50;;;25.93;66.80
20624;BME280;10471;42.736;23.346;2022-07-06T10:58:13;95565.97;;;26.10;69.14
20624;BME280;10471;42.736;23.346;2022-07-06T11:00:52;95564.88;;;26.15;67.69
20624;BME280;10471;42.736;23.346;2022-07-06T11:03:34;95561.75;;;26.13;62.46
20624;BME280;10471;42.736;23.346;2022-07-06T11:06:01;95554.97;;;26.26;65.39
20624;BME280;10471;42.736;23.346;2022-07-06T11:08:53;95556.00;;;26.18;65.67
20624;BME280;10471;42.736;23.346;2022-07-06T11:11:24;95560.72;;;26.24;64.78
20624;BME280;10471;42.736;23.346;2022-07-06T11:13:59;95548.22;;;26.13;63.98
20624;BME280;10471;42.736;23.346;2022-07-06T11:16:31;95545.66;;;25.90;63.94
20624;BME280;10471;42.736;23.346;2022-07-06T11:22:04;95547.25;;;26.28;66.40
20624;BME280;10471;42.736;23.346;2022-07-06T11:24:32;95540.69;;;26.29;66.74
20624;BME280;10471;42.736;23.346;2022-07-06T11:26:59;95536.03;;;26.26;66.50
20624;BME280;10471;42.736;23.346;2022-07-06T11:29:26;95536.81;;;26.26;65.78
20624;BME280;10471;42.736;23.346;2022-07-06T11:31:55;95547.13;;;26.47;64.34
20624;BME280;10471;42.736;23.346;2022-07-06T11:34:26;95527.94;;;26.62;63.19
20624;BME280;10471;42.736;23.346;2022-07-06T11:37:17;95533.66;;;26.53;63.83
20624;BME280;10471;42.736;23.346;2022-07-06T11:39:46;95529.19;;;26.71;63.74
20624;BME280;10471;42.736;23.346;2022-07-06T11:42:16;95532.78;;;27.29;60.31
20624;BME280;10471;42.736;23.346;2022-07-06T11:44:43;95516.63;;;27.43;59.93
20624;BME280;10471;42.736;23.346;2022-07-06T11:47:10;95528.66;;;27.45;59.17
20624;BME280;10471;42.736;23.346;2022-07-06T11:49:38;95521.41;;;27.60;59.41
20624;BME280;10471;42.736;23.346;2022-07-06T11:52:11;95513.41;;;27.87;58.88
20624;BME280;10471;42.736;23.346;2022-07-06T11:54:37;95504.91;;;27.85;53.93
20624;BME280;10471;42.736;23.346;2022-07-06T11:57:03;95503.38;;;27.31;55.34
20624;BME280;10471;42.736;23.346;2022-07-06T11:59:33;95504.88;;;26.78;55.75
20624;BME280;10471;42.736;23.346;2022-07-06T12:02:04;95506.78;;;26.74;57.06
20624;BME280;10471;42.736;23.346;2022-07-06T12:04:31;95508.69;;;26.70;57.70
20624;BME280;10471;42.736;23.346;2022-07-06T12:07:05;95501.88;;;26.44;58.65
20624;BME280;10471;42.736;23.346;2022-07-06T12:09:34;95500.56;;;26.31;59.49
20624;BME280;10471;42.736;23.346;2022-07-06T12:12:00;95504.94;;;26.09;59.11
20624;BME280;10471;42.736;23.346;2022-07-06T12:14:33;95501.09;;;26.10;61.29
20624;BME280;10471;42.736;23.346;2022-07-06T12:17:07;95498.09;;;26.51;61.83
20624;BME280;10471;42.736;23.346;2022-07-06T12:19:33;95504.06;;;26.71;59.88
20624;BME280;10471;42.736;23.346;2022-07-06T12:21:59;95499.97;;;26.87;58.96
20624;BME280;10471;42.736;23.346;2022-07-06T12:24:28;95499.19;;;27.37;59.28
20624;BME280;10471;42.736;23.346;2022-07-06T12:26:56;95496.94;;;27.53;54.65
20624;BME280;10471;42.736;23.346;2022-07-06T12:29:22;95492.19;;;27.36;55.01
20624;BME280;10471;42.736;23.346;2022-07-06T12:31:52;95508.97;;;27.55;56.38
20624;BME280;10471;42.736;23.346;2022-07-06T12:34:25;95493.84;;;27.54;57.75
20624;BME280;10471;42.736;23.346;2022-07-06T12:36:52;95497.06;;;27.70;54.78
20624;BME280;10471;42.736;23.346;2022-07-06T12:39:26;95489.47;;;27.96;55.99
20624;BME280;10471;42.736;23.346;2022-07-06T12:42:05;95486.34;;;27.94;55.20
20624;BME280;10471;42.736;23.346;2022-07-06T12:44:32;95489.47;;;28.03;54.60
20624;BME280;10471;42.736;23.346;2022-07-06T12:47:05;95478.47;;;27.58;55.50
20624;BME280;10471;42.736;23.346;2022-07-06T12:49:32;95474.69;;;27.83;56.19
20624;BME280;10471;42.736;23.346;2022-07-06T12:54:35;95491.63;;;27.67;54.35